sensor_id;sensor_type;location;lat;lon;timestamp;pressure;altitude;pressure_sealevel;temperature;humidity
67727;BME280;54525;55.680;37.540;2022-07-12T00:01:06;98729.25;;;25.53;45.97
67727;BME280;54525;55.680;37.540;2022-07-12T00:03:33;98727.84;;;25.50;46.26
67727;BME280;54525;55.680;37.540;2022-07-12T00:05:59;98722.41;;;25.50;46.29
67727;BME280;54525;55.680;37.540;2022-07-12T00:08:25;98728.06;;;25.49;46.88
67727;BME280;54525;55.680;37.540;2022-07-12T00:10:51;98728.53;;;25.46;46.38
67727;BME280;54525;55.680;37.540;2022-07-12T00:13:17;98723.38;;;25.44;46.41
67727;BME280;54525;55.680;37.540;2022-07-12T00:15:43;98723.38;;;25.44;46.79
67727;BME280;54525;55.680;37.540;2022-07-12T00:18:09;98722.78;;;25.42;46.71
67727;BME280;54525;55.680;37.540;2022-07-12T00:20:35;98720.91;;;25.42;46.84
67727;BME280;54525;55.680;37.540;2022-07-12T00:23:01;98717.34;;;25.42;46.81
67727;BME280;54525;55.680;37.540;2022-07-12T00:25:26;98716.75;;;25.40;46.93
67727;BME280;54525;55.680;37.540;2022-07-12T00:27:52;98718.31;;;25.36;47.19
67727;BME280;54525;55.680;37.540;2022-07-12T00:30:18;98706.88;;;25.34;47.09
67727;BME280;54525;55.680;37.540;2022-07-12T00:32:43;98716.16;;;25.38;47.04
67727;BME280;54525;55.680;37.540;2022-07-12T00:35:09;98712.38;;;25.39;47.00
67727;BME280;54525;55.680;37.540;2022-07-12T00:37:35;98709.59;;;25.34;47.02
67727;BME280;54525;55.680;37.540;2022-07-12T00:40:01;98710.19;;;25.36;46.90
67727;BME280;54525;55.680;37.540;2022-07-12T00:42:27;98711.78;;;25.37;47.20
67727;BME280;54525;55.680;37.540;2022-07-12T00:44:52;98703.13;;;25.35;46.94
67727;BME280;54525;55.680;37.540;2022-07-12T00:47:45;98711.56;;;25.38;47.08
67727;BME280;54525;55.680;37.540;2022-07-12T00:50:14;98699.34;;;25.36;47.32
67727;BME280;54525;55.680;37.540;2022-07-12T00:52:42;98697.31;;;25.31;47.40
67727;BME280;54525;55.680;37.540;2022-07-12T00:55:08;98685.56;;;25.25;47.23
67727;BME280;54525;55.680;37.540;2022-07-12T00:57:38;98686.53;;;25.19;47.42
67727;BME280;54525;55.680;37.540;2022-07-12T01:00:07;98674.28;;;25.17;47.60
67727;BME280;54525;55.680;37.540;2022-07-12T01:02:34;98672.53;;;25.10;47.89
67727;BME280;54525;55.680;37.540;2022-07-12T01:05:00;98657.03;;;25.06;47.78
67727;BME280;54525;55.680;37.540;2022-07-12T01:07:28;98655.84;;;25.02;47.90
67727;BME280;54525;55.680;37.540;2022-07-12T01:09:54;98651.38;;;24.95;48.07
67727;BME280;54525;55.680;37.540;2022-07-12T01:12:24;98651.88;;;24.92;47.98
67727;BME280;54525;55.680;37.540;2022-07-12T01:14:50;98645.16;;;24.83;48.48
67727;BME280;54525;55.680;37.540;2022-07-12T01:17:18;98647.03;;;24.82;48.34
67727;BME280;54525;55.680;37.540;2022-07-12T01:19:45;98644.09;;;24.84;48.19
67727;BME280;54525;55.680;37.540;2022-07-12T01:22:14;98649.84;;;24.88;48.40
67727;BME280;54525;55.680;37.540;2022-07-12T01:24:41;98648.78;;;24.89;48.62
67727;BME280;54525;55.680;37.540;2022-07-12T01:27:07;98647.97;;;24.88;48.43
67727;BME280;54525;55.680;37.540;2022-07-12T01:29:33;98633.38;;;24.89;47.98
67727;BME280;54525;55.680;37.540;2022-07-12T01:32:02;98640.06;;;24.87;47.90
67727;BME280;54525;55.680;37.540;2022-07-12T01:37:21;98634.44;;;24.76;48.03
67727;BME280;54525;55.680;37.540;2022-07-12T01:39:51;98615.16;;;24.73;48.30
67727;BME280;54525;55.680;37.540;2022-07-12T01:42:18;98608.56;;;24.68;48.67
67727;BME280;54525;55.680;37.540;2022-07-12T01:44:43;98599.25;;;24.64;48.60
67727;BME280;54525;55.680;37.540;2022-07-12T01:47:09;98600.31;;;24.63;48.48
67727;BME280;54525;55.680;37.540;2022-07-12T01:49:35;98592.94;;;24.71;48.47
67727;BME280;54525;55.680;37.540;2022-07-12T01:52:00;98578.69;;;24.75;48.05
67727;BME280;54525;55.680;37.540;2022-07-12T01:54:26;98592.81;;;24.77;48.20
67727;BME280;54525;55.680;37.540;2022-07-12T01:56:52;98596.91;;;24.80;48.21
67727;BME280;54525;55.680;37.540;2022-07-12T01:59:19;98603.88;;;24.76;48.49
67727;BME280;54525;55.680;37.540;2022-07-12T02:01:45;98601.19;;;24.76;48.71
67727;BME280;54525;55.680;37.540;2022-07-12T02:04:11;98592.69;;;24.72;48.36
67727;BME280;54525;55.680;37.540;2022-07-12T02:06:36;98580.59;;;24.75;48.66
67727;BME280;54525;55.680;37.540;2022-07-12T02:09:04;98578.69;;;24.75;48.38
67727;BME280;54525;55.680;37.540;2022-07-12T02:11:30;98580.09;;;24.78;48.43
67727;BME280;54525;55.680;37.540;2022-07-12T02:13:55;98570.69;;;24.80;48.52
67727;BME280;54525;55.680;37.540;2022-07-12T02:16:21;98563.31;;;24.76;48.78
67727;BME280;54525;55.680;37.540;2022-07-12T02:18:47;98553.53;;;24.75;48.74
67727;BME280;54525;55.680;37.540;2022-07-12T02:21:12;98562.00;;;24.78;49.08
67727;BME280;54525;55.680;37.540;2022-07-12T02:23:38;98553.63;;;24.80;48.61
67727;BME280;54525;55.680;37.540;2022-07-12T02:26:03;98552.81;;;24.79;48.90
67727;BME280;54525;55.680;37.540;2022-07-12T02:28:29;98557.19;;;24.80;48.97
67727;BME280;54525;55.680;37.540;2022-07-12T02:30:55;98546.03;;;24.77;48.86
67727;BME280;54525;55.680;37.540;2022-07-12T02:33:20;98550.94;;;24.80;49.02
67727;BME280;54525;55.680;37.540;2022-07-12T02:35:45;98543.88;;;24.79;48.79
67727;BME280;54525;55.680;37.540;2022-07-12T02:38:11;98551.66;;;24.75;49.00
67727;BME280;54525;55.680;37.540;2022-07-12T02:40:37;98550.59;;;24.76;49.06
67727;BME280;54525;55.680;37.540;2022-07-12T02:43:29;98551.66;;;24.75;49.30
67727;BME280;54525;55.680;37.540;2022-07-12T02:46:03;98561.16;;;24.78;48.91
67727;BME280;54525;55.680;37.540;2022-07-12T02:48:29;98562.81;;;24.79;49.18
67727;BME280;54525;55.680;37.540;2022-07-12T02:50:55;98554.81;;;24.84;49.07
67727;BME280;54525;55.680;37.540;2022-07-12T02:53:20;98559.16;;;24.85;48.82
67727;BME280;54525;55.680;37.540;2022-07-12T02:55:46;98555.25;;;24.93;48.93
67727;BME280;54525;55.680;37.540;2022-07-12T02:58:11;98565.28;;;24.92;49.08
67727;BME280;54525;55.680;37.540;2022-07-12T03:00:37;98553.28;;;24.88;48.92
67727;BME280;54525;55.680;37.540;2022-07-12T03:03:03;98555.06;;;24.82;49.25
67727;BME280;54525;55.680;37.540;2022-07-12T03:05:29;98561.88;;;24.85;49.14
67727;BME280;54525;55.680;37.540;2022-07-12T03:07:54;98567.03;;;24.87;48.99
67727;BME280;54525;55.680;37.540;2022-07-12T03:10:20;98570.69;;;24.92;49.26
67727;BME280;54525;55.680;37.540;2022-07-12T03:12:46;98577.97;;;24.92;49.21
67727;BME280;54525;55.680;37.540;2022-07-12T03:15:12;98575.00;;;24.93;49.05
67727;BME280;54525;55.680;37.540;2022-07-12T03:17:37;98567.72;;;24.94;48.63
67727;BME280;54525;55.680;37.540;2022-07-12T03:20:04;98569.03;;;24.91;48.88
67727;BME280;54525;55.680;37.540;2022-07-12T03:22:36;98568.94;;;24.86;48.97
67727;BME280;54525;55.680;37.540;2022-07-12T03:25:02;98583.25;;;24.87;48.94
67727;BME280;54525;55.680;37.540;2022-07-12T03:27:28;98580.94;;;24.90;49.18
67727;BME280;54525;55.680;37.540;2022-07-12T03:29:53;98576.66;;;24.94;48.87
67727;BME280;54525;55.680;37.540;2022-07-12T03:32:19;98582.66;;;24.96;49.00
67727;BME280;54525;55.680;37.540;2022-07-12T03:34:44;98578.81;;;24.92;49.01
67727;BME280;54525;55.680;37.540;2022-07-12T03:37:10;98579.28;;;24.89;48.85
67727;BME280;54525;55.680;37.540;2022-07-12T03:39:35;98570.69;;;24.92;48.96
67727;BME280;54525;55.680;37.540;2022-07-12T03:42:00;98576.19;;;24.97;49.19
67727;BME280;54525;55.680;37.540;2022-07-12T03:44:26;98569.00;;;25.03;48.75
67727;BME280;54525;55.680;37.540;2022-07-12T03:46:51;98569.84;;;25.04;48.72
67727;BME280;54525;55.680;37.540;2022-07-12T03:49:17;98568.78;;;25.05;48.82
67727;BME280;54525;55.680;37.540;2022-07-12T03:51:43;98565.94;;;25.11;48.48
67727;BME280;54525;55.680;37.540;2022-07-12T03:54:08;98577.34;;;25.13;48.69
67727;BME280;54525;55.680;37.540;2022-07-12T03:56:34;98575.06;;;25.22;48.60
67727;BME280;54525;55.680;37.540;2022-07-12T03:59:18;98573.28;;;25.28;48.49
67727;BME280;54525;55.680;37.540;2022-07-12T04:01:44;98578.94;;;25.26;48.59
67727;BME280;54525;55.680;37.540;2022-07-12T04:04:09;98587.53;;;25.23;48.55
67727;BME280;54525;55.680;37.540;2022-07-12T04:06:35;98584.59;;;25.25;48.37
67727;BME280;54525;55.680;37.540;2022-07-12T04:09:00;98600.44;;;25.33;48.72
67727;BME280;54525;55.680;37.540;2022-07-12T04:11:26;98603.00;;;25.40;48.45
67727;BME280;54525;55.680;37.540;2022-07-12T04:13:51;98599.84;;;25.43;48.50
67727;BME280;54525;55.680;37.540;2022-07-12T04:16:17;98594.78;;;25.47;48.35
67727;BME280;54525;55.680;37.540;2022-07-12T04:18:42;98597.00;;;25.50;48.46
67727;BME280;54525;55.680;37.540;2022-07-12T04:21:08;98596.41;;;25.48;48.66
67727;BME280;54525;55.680;37.540;2022-07-12T04:23:33;98610.53;;;25.50;48.57
67727;BME280;54525;55.680;37.540;2022-07-12T04:25:59;98595.69;;;25.52;48.36
67727;BME280;54525;55.680;37.540;2022-07-12T04:28:24;98601.94;;;25.53;48.38
67727;BME280;54525;55.680;37.540;2022-07-12T04:30:49;98601.47;;;25.56;48.34
67727;BME280;54525;55.680;37.540;2022-07-12T04:33:15;98606.03;;;25.55;48.47
67727;BME280;54525;55.680;37.540;2022-07-12T04:35:40;98611.38;;;25.50;48.57
67727;BME280;54525;55.680;37.540;2022-07-12T04:38:07;98600.44;;;25.45;48.84
67727;BME280;54525;55.680;37.540;2022-07-12T04:40:33;98602.56;;;25.43;48.80
67727;BME280;54525;55.680;37.540;2022-07-12T04:42:58;98607.63;;;25.39;48.85
67727;BME280;54525;55.680;37.540;2022-07-12T04:45:24;98608.22;;;25.41;48.96
67727;BME280;54525;55.680;37.540;2022-07-12T04:47:49;98611.75;;;25.42;48.97
67727;BME280;54525;55.680;37.540;2022-07-12T04:50:14;98616.34;;;25.41;49.25
67727;BME280;54525;55.680;37.540;2022-07-12T04:52:40;98604.22;;;25.44;48.92
67727;BME280;54525;55.680;37.540;2022-07-12T04:55:06;98607.50;;;25.46;49.14
67727;BME280;54525;55.680;37.540;2022-07-12T04:57:32;98607.97;;;25.43;49.25
67727;BME280;54525;55.680;37.540;2022-07-12T04:59:58;98618.00;;;25.42;49.07
67727;BME280;54525;55.680;37.540;2022-07-12T05:02:23;98610.06;;;25.41;49.07
67727;BME280;54525;55.680;37.540;2022-07-12T05:04:49;98619.88;;;25.42;49.16
67727;BME280;54525;55.680;37.540;2022-07-12T05:07:14;98620.91;;;25.41;49.19
67727;BME280;54525;55.680;37.540;2022-07-12T05:09:40;98623.03;;;25.39;49.30
67727;BME280;54525;55.680;37.540;2022-07-12T05:12:06;98619.19;;;25.35;49.26
67727;BME280;54525;55.680;37.540;2022-07-12T05:14:31;98618.34;;;25.34;49.08
67727;BME280;54525;55.680;37.540;2022-07-12T05:16:57;98616.94;;;25.32;49.50
67727;BME280;54525;55.680;37.540;2022-07-12T05:19:22;98610.81;;;25.24;49.64
67727;BME280;54525;55.680;37.540;2022-07-12T05:21:48;98623.22;;;25.20;49.51
67727;BME280;54525;55.680;37.540;2022-07-12T05:24:14;98624.28;;;25.19;49.38
67727;BME280;54525;55.680;37.540;2022-07-12T05:26:39;98615.56;;;25.17;49.77
67727;BME280;54525;55.680;37.540;2022-07-12T05:29:05;98620.97;;;25.17;49.54
67727;BME280;54525;55.680;37.540;2022-07-12T05:31:30;98618.50;;;25.16;49.56
67727;BME280;54525;55.680;37.540;2022-07-12T05:33:56;98619.81;;;25.13;49.77
67727;BME280;54525;55.680;37.540;2022-07-12T05:36:21;98622.28;;;25.14;49.41
67727;BME280;54525;55.680;37.540;2022-07-12T05:38:47;98620.72;;;25.19;49.73
67727;BME280;54525;55.680;37.540;2022-07-12T05:41:12;98629.78;;;25.24;49.35
67727;BME280;54525;55.680;37.540;2022-07-12T05:43:38;98614.03;;;25.21;49.69
67727;BME280;54525;55.680;37.540;2022-07-12T05:46:04;98622.25;;;25.26;49.44
67727;BME280;54525;55.680;37.540;2022-07-12T05:48:30;98618.25;;;25.29;49.37
67727;BME280;54525;55.680;37.540;2022-07-12T05:50:55;98626.59;;;25.27;49.25
67727;BME280;54525;55.680;37.540;2022-07-12T05:53:40;98625.69;;;25.22;49.39
67727;BME280;54525;55.680;37.540;2022-07-12T05:56:06;98636.25;;;25.23;49.48
67727;BME280;54525;55.680;37.540;2022-07-12T05:58:31;98624.94;;;25.26;49.84
67727;BME280;54525;55.680;37.540;2022-07-12T06:00:57;98637.44;;;25.27;50.92
67727;BME280;54525;55.680;37.540;2022-07-12T06:03:22;98637.31;;;25.22;51.31
67727;BME280;54525;55.680;37.540;2022-07-12T06:05:48;98623.22;;;25.20;51.22
67727;BME280;54525;55.680;37.540;2022-07-12T06:08:13;98637.44;;;25.16;51.13
67727;BME280;54525;55.680;37.540;2022-07-12T06:10:39;98634.66;;;25.10;51.77
67727;BME280;54525;55.680;37.540;2022-07-12T06:13:04;98633.47;;;25.06;51.84
67727;BME280;54525;55.680;37.540;2022-07-12T06:15:30;98633.22;;;25.08;52.13
67727;BME280;54525;55.680;37.540;2022-07-12T06:17:56;98633.22;;;25.08;51.66
67727;BME280;54525;55.680;37.540;2022-07-12T06:20:22;98640.78;;;25.06;51.71
67727;BME280;54525;55.680;37.540;2022-07-12T06:22:47;98633.59;;;24.99;51.61
67727;BME280;54525;55.680;37.540;2022-07-12T06:25:14;98630.44;;;25.03;51.49
67727;BME280;54525;55.680;37.540;2022-07-12T06:27:39;98629.97;;;25.06;51.64
67727;BME280;54525;55.680;37.540;2022-07-12T06:30:05;98624.75;;;25.04;51.27
67727;BME280;54525;55.680;37.540;2022-07-12T06:32:31;98642.31;;;25.02;51.82
67727;BME280;54525;55.680;37.540;2022-07-12T06:34:56;98634.66;;;24.98;51.58
67727;BME280;54525;55.680;37.540;2022-07-12T06:37:22;98645.81;;;25.02;51.88
67727;BME280;54525;55.680;37.540;2022-07-12T06:39:48;98652.66;;;25.05;51.61
67727;BME280;54525;55.680;37.540;2022-07-12T06:42:13;98651.81;;;25.04;51.88
67727;BME280;54525;55.680;37.540;2022-07-12T06:44:39;98659.25;;;24.97;51.70
67727;BME280;54525;55.680;37.540;2022-07-12T06:47:04;98659.72;;;24.94;51.50
67727;BME280;54525;55.680;37.540;2022-07-12T06:49:30;98659.38;;;24.90;51.87
67727;BME280;54525;55.680;37.540;2022-07-12T06:51:55;98652.56;;;24.88;52.19
67727;BME280;54525;55.680;37.540;2022-07-12T06:54:21;98655.25;;;24.88;52.20
67727;BME280;54525;55.680;37.540;2022-07-12T06:56:47;98662.56;;;24.87;52.23
67727;BME280;54525;55.680;37.540;2022-07-12T06:59:12;98658.69;;;24.83;52.23
67727;BME280;54525;55.680;37.540;2022-07-12T07:01:38;98662.44;;;24.82;52.20
67727;BME280;54525;55.680;37.540;2022-07-12T07:04:04;98660.31;;;24.84;52.51
67727;BME280;54525;55.680;37.540;2022-07-12T07:06:29;98681.72;;;24.86;52.48
67727;BME280;54525;55.680;37.540;2022-07-12T07:08:55;98665.47;;;24.86;52.54
67727;BME280;54525;55.680;37.540;2022-07-12T07:11:20;98680.91;;;24.85;52.67
67727;BME280;54525;55.680;37.540;2022-07-12T07:13:46;98671.16;;;24.84;52.84
67727;BME280;54525;55.680;37.540;2022-07-12T07:16:11;98667.97;;;24.87;52.93
67727;BME280;54525;55.680;37.540;2022-07-12T07:18:37;98667.25;;;24.92;52.39
67727;BME280;54525;55.680;37.540;2022-07-12T07:21:02;98665.16;;;24.94;52.16
67727;BME280;54525;55.680;37.540;2022-07-12T07:23:28;98661.13;;;24.96;52.35
67727;BME280;54525;55.680;37.540;2022-07-12T07:25:53;98657.28;;;24.92;52.13
67727;BME280;54525;55.680;37.540;2022-07-12T07:28:19;98649.72;;;24.94;52.01
67727;BME280;54525;55.680;37.540;2022-07-12T07:30:45;98656.19;;;25.05;52.04
67727;BME280;54525;55.680;37.540;2022-07-12T07:33:24;98645.34;;;25.17;52.35
67727;BME280;54525;55.680;37.540;2022-07-12T07:35:50;98654.16;;;25.24;51.79
67727;BME280;54525;55.680;37.540;2022-07-12T07:38:17;98652.13;;;25.32;51.57
67727;BME280;54525;55.680;37.540;2022-07-12T07:40:43;98654.38;;;25.35;51.31
67727;BME280;54525;55.680;37.540;2022-07-12T07:43:09;98655.53;;;25.39;51.06
67727;BME280;54525;55.680;37.540;2022-07-12T07:45:34;98659.88;;;25.40;51.37
67727;BME280;54525;55.680;37.540;2022-07-12T07:48:00;98658.00;;;25.40;51.32
67727;BME280;54525;55.680;37.540;2022-07-12T07:50:26;98662.72;;;25.45;51.19
67727;BME280;54525;55.680;37.540;2022-07-12T07:52:51;98662.25;;;25.48;51.10
67727;BME280;54525;55.680;37.540;2022-07-12T07:55:17;98666.47;;;25.56;51.02
67727;BME280;54525;55.680;37.540;2022-07-12T07:57:43;98670.56;;;25.58;50.53
67727;BME280;54525;55.680;37.540;2022-07-12T08:00:10;98675.88;;;25.53;50.57
67727;BME280;54525;55.680;37.540;2022-07-12T08:02:35;98675.31;;;25.51;50.83
67727;BME280;54525;55.680;37.540;2022-07-12T08:05:02;98679.31;;;25.49;50.90
67727;BME280;54525;55.680;37.540;2022-07-12T08:07:27;98689.41;;;25.53;50.85
67727;BME280;54525;55.680;37.540;2022-07-12T08:09:53;98682.94;;;25.54;50.67
67727;BME280;54525;55.680;37.540;2022-07-12T08:12:18;98692.97;;;25.54;51.12
67727;BME280;54525;55.680;37.540;2022-07-12T08:14:44;98698.59;;;25.52;50.98
67727;BME280;54525;55.680;37.540;2022-07-12T08:17:09;98695.91;;;25.52;50.94
67727;BME280;54525;55.680;37.540;2022-07-12T08:19:35;98696.75;;;25.53;50.96
67727;BME280;54525;55.680;37.540;2022-07-12T08:22:00;98694.38;;;25.56;50.77
67727;BME280;54525;55.680;37.540;2022-07-12T08:24:26;98692.56;;;25.62;50.67
67727;BME280;54525;55.680;37.540;2022-07-12T08:26:51;98696.72;;;25.65;50.93
67727;BME280;54525;55.680;37.540;2022-07-12T08:29:17;98702.00;;;25.71;50.86
67727;BME280;54525;55.680;37.540;2022-07-12T08:31:42;98703.28;;;25.69;51.15
67727;BME280;54525;55.680;37.540;2022-07-12T08:34:08;98697.53;;;25.65;51.13
67727;BME280;54525;55.680;37.540;2022-07-12T08:36:34;98699.75;;;25.68;51.04
67727;BME280;54525;55.680;37.540;2022-07-12T08:39:00;98709.75;;;25.68;51.14
67727;BME280;54525;55.680;37.540;2022-07-12T08:41:25;98708.47;;;25.70;50.93
67727;BME280;54525;55.680;37.540;2022-07-12T08:43:50;98717.41;;;25.71;51.29
67727;BME280;54525;55.680;37.540;2022-07-12T08:46:16;98717.41;;;25.71;50.91
67727;BME280;54525;55.680;37.540;2022-07-12T08:48:43;98711.19;;;25.70;50.97
67727;BME280;54525;55.680;37.540;2022-07-12T08:51:19;98698.09;;;25.67;51.03
67727;BME280;54525;55.680;37.540;2022-07-12T08:54:13;98716.59;;;25.70;51.16
67727;BME280;54525;55.680;37.540;2022-07-12T08:56:42;98722.00;;;25.70;50.85
67727;BME280;54525;55.680;37.540;2022-07-12T08:59:10;98718.47;;;25.70;50.59
67727;BME280;54525;55.680;37.540;2022-07-12T09:01:54;98716.59;;;25.70;50.63
67727;BME280;54525;55.680;37.540;2022-07-12T09:04:38;98725.19;;;25.67;50.28
67727;BME280;54525;55.680;37.540;2022-07-12T09:07:13;98722.50;;;25.67;50.31
67727;BME280;54525;55.680;37.540;2022-07-12T09:09:39;98718.38;;;25.65;50.23
67727;BME280;54525;55.680;37.540;2022-07-12T09:12:05;98723.06;;;25.69;50.21
67727;BME280;54525;55.680;37.540;2022-07-12T09:14:42;98726.13;;;25.73;50.17
67727;BME280;54525;55.680;37.540;2022-07-12T09:17:26;98718.31;;;25.77;50.10
67727;BME280;54525;55.680;37.540;2022-07-12T09:20:10;98728.03;;;25.72;49.50
67727;BME280;54525;55.680;37.540;2022-07-12T09:22:56;98729.22;;;25.65;49.13
67727;BME280;54525;55.680;37.540;2022-07-12T09:25:22;98734.78;;;25.58;49.01
67727;BME280;54525;55.680;37.540;2022-07-12T09:27:55;98743.44;;;25.60;49.07
67727;BME280;54525;55.680;37.540;2022-07-12T09:30:23;98739.34;;;25.57;49.31
67727;BME280;54525;55.680;37.540;2022-07-12T09:33:08;98744.75;;;25.57;49.13
67727;BME280;54525;55.680;37.540;2022-07-12T09:36:00;98738.53;;;25.57;49.27
67727;BME280;54525;55.680;37.540;2022-07-12T09:38:33;98741.69;;;25.66;49.08
67727;BME280;54525;55.680;37.540;2022-07-12T09:41:00;98744.50;;;25.71;48.81
67727;BME280;54525;55.680;37.540;2022-07-12T09:43:26;98734.84;;;25.75;48.90
67727;BME280;54525;55.680;37.540;2022-07-12T09:45:52;98738.72;;;25.79;48.41
67727;BME280;54525;55.680;37.540;2022-07-12T09:48:19;98751.75;;;25.82;48.60
67727;BME280;54525;55.680;37.540;2022-07-12T09:50:50;98751.75;;;25.82;48.32
67727;BME280;54525;55.680;37.540;2022-07-12T09:53:21;98752.25;;;25.79;48.57
67727;BME280;54525;55.680;37.540;2022-07-12T09:55:50;98750.09;;;25.81;48.68
67727;BME280;54525;55.680;37.540;2022-07-12T09:58:22;98760.94;;;25.81;48.76
67727;BME280;54525;55.680;37.540;2022-07-12T10:00:50;98745.66;;;25.75;48.85
67727;BME280;54525;55.680;37.540;2022-07-12T10:03:20;98755.13;;;25.72;48.96
67727;BME280;54525;55.680;37.540;2022-07-12T10:05:46;98768.28;;;25.69;48.74
67727;BME280;54525;55.680;37.540;2022-07-12T10:08:13;98774.22;;;25.66;49.09
67727;BME280;54525;55.680;37.540;2022-07-12T10:10:39;98779.97;;;25.69;49.07
67727;BME280;54525;55.680;37.540;2022-07-12T10:13:05;98775.69;;;25.73;48.80
67727;BME280;54525;55.680;37.540;2022-07-12T10:15:31;98766.63;;;25.80;48.46
67727;BME280;54525;55.680;37.540;2022-07-12T10:18:00;98771.31;;;25.84;48.67
67727;BME280;54525;55.680;37.540;2022-07-12T10:20:26;98788.75;;;25.88;48.21
67727;BME280;54525;55.680;37.540;2022-07-12T10:22:54;98791.22;;;25.90;48.26
67727;BME280;54525;55.680;37.540;2022-07-12T10:27:51;98772.09;;;25.97;47.37
67727;BME280;54525;55.680;37.540;2022-07-12T10:30:21;98797.91;;;25.99;47.11
67727;BME280;54525;55.680;37.540;2022-07-12T10:32:48;98809.72;;;25.93;47.08
67727;BME280;54525;55.680;37.540;2022-07-12T10:35:22;98799.19;;;25.97;46.53
67727;BME280;54525;55.680;37.540;2022-07-12T10:40:35;98811.22;;;26.01;45.49
67727;BME280;54525;55.680;37.540;2022-07-12T10:45:32;98808.97;;;25.98;44.58
67727;BME280;54525;55.680;37.540;2022-07-12T10:48:00;98818.44;;;25.95;44.18
67727;BME280;54525;55.680;37.540;2022-07-12T10:58:36;98812.88;;;26.02;43.74
67727;BME280;54525;55.680;37.540;2022-07-12T11:01:05;98822.66;;;26.03;43.62
67727;BME280;54525;55.680;37.540;2022-07-12T11:04:17;98815.25;;;25.98;44.03
67727;BME280;54525;55.680;37.540;2022-07-12T11:06:20;98814.41;;;25.98;44.06
67727;BME280;54525;55.680;37.540;2022-07-12T11:09:09;98824.44;;;25.97;43.86
67727;BME280;54525;55.680;37.540;2022-07-12T11:11:40;98823.03;;;25.95;44.06
67727;BME280;54525;55.680;37.540;2022-07-12T11:14:06;98815.13;;;25.93;44.17
67727;BME280;54525;55.680;37.540;2022-07-12T11:16:32;98827.63;;;25.94;43.89
67727;BME280;54525;55.680;37.540;2022-07-12T11:18:58;98826.31;;;25.97;43.73
67727;BME280;54525;55.680;37.540;2022-07-12T11:21:24;98828.94;;;25.92;43.28
67727;BME280;54525;55.680;37.540;2022-07-12T11:23:50;98834.22;;;25.86;43.39
67727;BME280;54525;55.680;37.540;2022-07-12T11:26:40;98840.38;;;25.82;43.44
67727;BME280;54525;55.680;37.540;2022-07-12T11:29:55;98828.13;;;25.79;43.88
67727;BME280;54525;55.680;37.540;2022-07-12T11:32:33;98841.78;;;25.84;43.80
67727;BME280;54525;55.680;37.540;2022-07-12T11:38:02;98840.91;;;25.96;44.11
67727;BME280;54525;55.680;37.540;2022-07-12T11:40:30;98844.81;;;26.00;44.00
67727;BME280;54525;55.680;37.540;2022-07-12T11:42:58;98843.75;;;26.01;44.22
67727;BME280;54525;55.680;37.540;2022-07-12T11:45:28;98850.56;;;26.03;44.20
67727;BME280;54525;55.680;37.540;2022-07-12T11:47:55;98849.50;;;26.04;44.26
67727;BME280;54525;55.680;37.540;2022-07-12T11:50:21;98857.41;;;26.06;44.28
67727;BME280;54525;55.680;37.540;2022-07-12T11:52:47;98854.69;;;26.06;44.22
67727;BME280;54525;55.680;37.540;2022-07-12T11:55:13;98863.91;;;26.05;44.34
67727;BME280;54525;55.680;37.540;2022-07-12T11:57:38;98864.97;;;26.04;43.88
67727;BME280;54525;55.680;37.540;2022-07-12T12:02:41;98863.16;;;26.10;44.19
67727;BME280;54525;55.680;37.540;2022-07-12T12:05:07;98862.72;;;26.13;43.96
67727;BME280;54525;55.680;37.540;2022-07-12T12:07:33;98862.47;;;26.14;43.77
67727;BME280;54525;55.680;37.540;2022-07-12T12:10:25;98861.19;;;26.17;43.11
67727;BME280;54525;55.680;37.540;2022-07-12T12:12:52;98871.78;;;26.18;43.17
67727;BME280;54525;55.680;37.540;2022-07-12T12:15:22;98872.84;;;26.17;43.19
67727;BME280;54525;55.680;37.540;2022-07-12T12:17:57;98876.50;;;26.11;43.05
67727;BME280;54525;55.680;37.540;2022-07-12T12:22:54;98875.47;;;26.00;43.25
67727;BME280;54525;55.680;37.540;2022-07-12T12:25:21;98887.69;;;26.03;43.15
67727;BME280;54525;55.680;37.540;2022-07-12T12:28:00;98886.75;;;26.09;42.89
67727;BME280;54525;55.680;37.540;2022-07-12T12:30:26;98890.06;;;26.11;42.90
67727;BME280;54525;55.680;37.540;2022-07-12T12:32:57;98889.59;;;26.14;42.66
67727;BME280;54525;55.680;37.540;2022-07-12T12:38:02;98905.84;;;26.14;42.69
67727;BME280;54525;55.680;37.540;2022-07-12T12:40:30;98914.84;;;26.15;43.04
67727;BME280;54525;55.680;37.540;2022-07-12T12:43:08;98911.88;;;26.16;43.09
67727;BME280;54525;55.680;37.540;2022-07-12T12:45:34;98914.00;;;26.14;43.28
67727;BME280;54525;55.680;37.540;2022-07-12T12:48:04;98919.41;;;26.14;43.56
67727;BME280;54525;55.680;37.540;2022-07-12T12:50:46;98929.44;;;26.14;43.74
67727;BME280;54525;55.680;37.540;2022-07-12T12:55:45;98960.34;;;26.13;44.12
67727;BME280;54525;55.680;37.540;2022-07-12T12:58:12;98968.09;;;26.09;44.48
67727;BME280;54525;55.680;37.540;2022-07-12T13:00:39;98988.59;;;26.05;44.90
67727;BME280;54525;55.680;37.540;2022-07-12T13:03:09;98983.50;;;25.97;45.31
67727;BME280;54525;55.680;37.540;2022-07-12T13:05:35;98984.34;;;25.85;45.74
67727;BME280;54525;55.680;37.540;2022-07-12T13:08:05;98987.63;;;25.87;46.03
67727;BME280;54525;55.680;37.540;2022-07-12T13:10:31;98975.63;;;25.83;46.63
67727;BME280;54525;55.680;37.540;2022-07-12T13:12:57;98965.28;;;25.80;46.45
67727;BME280;54525;55.680;37.540;2022-07-12T13:15:23;98967.28;;;25.85;46.41
67727;BME280;54525;55.680;37.540;2022-07-12T13:17:49;98973.97;;;25.82;46.82
67727;BME280;54525;55.680;37.540;2022-07-12T13:20:14;98979.75;;;25.86;46.73
67727;BME280;54525;55.680;37.540;2022-07-12T13:22:41;98974.22;;;25.81;46.82
67727;BME280;54525;55.680;37.540;2022-07-12T13:25:07;98971.75;;;25.79;46.94